Time;durP1;ratioP1;P1;durP2;ratioP2;P2;SDS_P1;SDS_P2;PMS_P1;PMS_P2;Temp;Humidity;BMP_temperature;BMP_pressure;BME280_temperature;BME280_humidity;BME280_pressure;Samples;Min_cycle;Max_cycle;Signal;HPM_P1;HPM_P2
2022/03/09 00:00:39;;;;;;;15.45;6.90;;;-1.70;99.90;;;;;;5077027;28;20419;-70
2022/03/09 00:03:06;;;;;;;19.77;8.10;;;-1.80;99.90;;;;;;5077034;28;20024;-70
2022/03/09 00:05:33;;;;;;;10.70;5.07;;;-1.80;99.90;;;;;;5076875;28;20052;-70
2022/03/09 00:08:02;;;;;;;18.98;5.75;;;-1.80;99.90;;;;;;5076971;28;20099;-70
2022/03/09 00:10:29;;;;;;;15.05;5.35;;;-1.80;99.90;;;;;;5058598;28;20031;-70
2022/03/09 00:12:56;;;;;;;11.88;5.13;;;-1.90;99.90;;;;;;5076948;28;20025;-70
2022/03/09 00:15:25;;;;;;;12.52;4.63;;;-1.90;99.90;;;;;;5058684;28;20039;-70
2022/03/09 00:17:53;;;;;;;13.63;5.22;;;-1.90;99.90;;;;;;5076532;28;20040;-70
2022/03/09 00:20:20;;;;;;;12.20;4.55;;;-1.80;99.90;;;;;;5076333;28;20045;-70
2022/03/09 00:22:48;;;;;;;6.78;3.35;;;-1.90;99.90;;;;;;5077115;28;20031;-69
2022/03/09 00:25:15;;;;;;;9.05;4.85;;;-1.90;99.90;;;;;;5077856;28;20025;-69
2022/03/09 00:27:42;;;;;;;16.13;3.85;;;-1.90;99.90;;;;;;5077714;28;20031;-69
2022/03/09 00:30:10;;;;;;;8.90;4.28;;;-2.00;99.90;;;;;;5077464;28;20075;-70
2022/03/09 00:32:40;;;;;;;12.10;4.28;;;-2.00;99.90;;;;;;5077686;28;20012;-69
2022/03/09 00:38:45;;;;;;;7.20;3.55;;;-2.10;99.90;;;;;;5077534;28;20476;-70
2022/03/09 00:41:14;;;;;;;8.40;4.00;;;-2.10;99.90;;;;;;5077311;28;20017;-69
2022/03/09 00:43:42;;;;;;;9.68;3.65;;;-2.10;99.90;;;;;;5076733;28;20028;-69
2022/03/09 00:46:09;;;;;;;7.45;3.30;;;-2.20;99.90;;;;;;5058217;28;20028;-70
2022/03/09 00:48:38;;;;;;;9.25;4.13;;;-2.20;99.90;;;;;;5076802;28;20016;-69
2022/03/09 00:51:06;;;;;;;9.57;3.25;;;-2.20;99.90;;;;;;5076046;28;20024;-69
2022/03/09 00:53:33;;;;;;;9.75;3.53;;;-2.20;99.90;;;;;;5076585;28;20071;-70
2022/03/09 00:56:00;;;;;;;9.48;3.65;;;-2.20;99.90;;;;;;5058217;28;20421;-70
2022/03/09 00:58:28;;;;;;;6.75;3.05;;;-2.30;99.90;;;;;;5076158;28;20025;-69
2022/03/09 01:00:55;;;;;;;6.25;3.13;;;-2.30;99.90;;;;;;5075864;28;20027;-69
2022/03/09 01:03:23;;;;;;;15.38;3.22;;;-2.30;99.90;;;;;;5075960;28;20032;-69
2022/03/09 01:05:50;;;;;;;9.35;2.83;;;-2.30;99.90;;;;;;5076419;28;20442;-70
2022/03/09 01:08:18;;;;;;;11.05;3.72;;;-2.30;99.90;;;;;;5077451;28;20064;-70
2022/03/09 01:10:45;;;;;;;7.43;3.42;;;-2.30;99.90;;;;;;5077194;28;20025;-70
2022/03/09 01:13:12;;;;;;;10.77;3.88;;;-2.30;99.90;;;;;;5059034;28;20024;-69
2022/03/09 01:15:40;;;;;;;6.38;2.97;;;-2.30;99.90;;;;;;5076631;28;20089;-70
2022/03/09 01:18:08;;;;;;;10.15;3.70;;;-2.30;99.90;;;;;;5086493;28;20121;-69
2022/03/09 01:20:35;;;;;;;12.30;4.72;;;-2.30;99.90;;;;;;5099514;28;20036;-69
2022/03/09 01:23:03;;;;;;;12.23;5.03;;;-2.40;99.90;;;;;;5099532;28;20024;-69
2022/03/09 01:25:30;;;;;;;9.90;4.57;;;-2.40;99.90;;;;;;5100659;28;20028;-69
2022/03/09 01:27:57;;;;;;;9.68;3.65;;;-2.40;99.90;;;;;;5099521;28;20024;-70
2022/03/09 01:30:25;;;;;;;9.88;3.50;;;-2.40;99.90;;;;;;5098252;28;20052;-70
2022/03/09 01:32:52;;;;;;;11.82;5.05;;;-2.30;99.90;;;;;;5099092;28;20016;-69
2022/03/09 01:35:19;;;;;;;13.60;4.60;;;-2.30;99.90;;;;;;5098339;28;20165;-70
2022/03/09 01:37:46;;;;;;;12.32;4.15;;;-2.30;99.90;;;;;;5099864;28;20020;-70
2022/03/09 01:40:15;;;;;;;11.68;4.20;;;-2.20;99.90;;;;;;5099868;28;20109;-70
2022/03/09 01:42:43;;;;;;;5.80;3.58;;;-2.20;99.90;;;;;;5099467;28;20055;-69
2022/03/09 01:45:12;;;;;;;7.47;3.10;;;-2.20;99.90;;;;;;5098047;28;20024;-69
2022/03/09 01:47:39;;;;;;;10.32;3.47;;;-2.30;99.90;;;;;;5098728;28;20089;-70
2022/03/09 01:50:09;;;;;;;7.50;3.75;;;-2.30;99.90;;;;;;5098875;28;20419;-69
2022/03/09 01:52:37;;;;;;;9.05;3.65;;;-2.20;99.90;;;;;;5100190;28;20081;-69
2022/03/09 01:55:05;;;;;;;9.63;3.80;;;-2.30;99.90;;;;;;5099913;28;20020;-70
2022/03/09 01:57:33;;;;;;;10.50;3.53;;;-2.20;99.90;;;;;;5099956;28;20020;-69
2022/03/09 02:00:01;;;;;;;8.82;3.58;;;-2.20;99.90;;;;;;5098796;28;20028;-69
2022/03/09 02:02:28;;;;;;;10.60;4.00;;;-2.20;99.90;;;;;;5098812;28;20028;-69
2022/03/09 02:04:56;;;;;;;8.68;3.50;;;-2.30;99.90;;;;;;5098689;28;20074;-69
2022/03/09 02:09:41;;;;;;;7.28;3.58;;;-2.30;99.90;;;;;;5097986;28;20034;-70
2022/03/09 02:10:11;;;;;;;7.85;3.40;;;-2.30;99.90;;;;;;5098481;28;20328;-70
2022/03/09 02:12:38;;;;;;;6.03;3.60;;;-2.40;99.90;;;;;;5097780;28;20028;-70
2022/03/09 02:15:07;;;;;;;8.52;3.65;;;-2.40;99.90;;;;;;5098540;28;20328;-70
2022/03/09 02:17:34;;;;;;;9.02;4.00;;;-2.40;99.90;;;;;;5089050;28;20048;-70
2022/03/09 02:20:02;;;;;;;8.68;3.88;;;-2.50;99.90;;;;;;5078712;28;20023;-69
2022/03/09 02:22:38;;;;;;;9.25;4.53;;;-2.40;99.90;;;;;;5060587;28;20025;-69
2022/03/09 02:25:08;;;;;;;13.07;4.47;;;-2.50;99.90;;;;;;5060393;28;20154;-70
2022/03/09 02:27:35;;;;;;;8.82;3.80;;;-2.50;99.90;;;;;;5078667;28;20020;-70
2022/03/09 02:30:03;;;;;;;7.63;3.88;;;-2.50;99.90;;;;;;5077512;28;20021;-69
2022/03/09 02:32:31;;;;;;;7.20;3.97;;;-2.50;99.90;;;;;;5079329;28;20047;-70
2022/03/09 02:34:58;;;;;;;9.23;4.03;;;-2.50;99.90;;;;;;5078907;28;20024;-70
2022/03/09 02:37:25;;;;;;;11.30;4.15;;;-2.50;99.90;;;;;;5061083;28;20020;-69
2022/03/09 02:39:52;;;;;;;5.90;3.40;;;-2.50;99.90;;;;;;5061080;28;20060;-69
2022/03/09 02:42:20;;;;;;;12.90;4.40;;;-2.50;99.90;;;;;;5078747;28;20020;-69
2022/03/09 02:44:47;;;;;;;7.72;3.85;;;-2.60;99.90;;;;;;5078662;28;20028;-70
2022/03/09 02:47:14;;;;;;;10.30;4.07;;;-2.60;99.90;;;;;;5060823;28;20029;-69
2022/03/09 02:49:41;;;;;;;9.50;4.13;;;-2.60;99.90;;;;;;5060101;28;20028;-69
2022/03/09 02:52:08;;;;;;;7.88;4.47;;;-2.70;99.90;;;;;;5059913;28;20028;-69
2022/03/09 02:54:35;;;;;;;8.07;4.22;;;-2.70;99.90;;;;;;5078230;28;20417;-69
2022/03/09 02:57:03;;;;;;;8.65;3.53;;;-2.70;99.90;;;;;;5077724;28;20162;-69
2022/03/09 02:59:31;;;;;;;9.82;4.03;;;-2.80;99.90;;;;;;5077979;28;20104;-69
2022/03/09 03:01:58;;;;;;;8.10;4.03;;;-2.80;99.90;;;;;;5077461;28;20044;-69
2022/03/09 03:04:25;;;;;;;10.65;4.47;;;-2.80;99.90;;;;;;5059553;28;20036;-69
2022/03/09 03:06:53;;;;;;;12.00;4.60;;;-2.80;99.90;;;;;;5077494;28;20020;-69
2022/03/09 03:09:20;;;;;;;8.80;4.75;;;-2.90;99.90;;;;;;5059471;28;20162;-69
2022/03/09 03:11:47;;;;;;;10.38;4.25;;;-2.90;99.90;;;;;;5059994;28;20324;-70
2022/03/09 03:14:15;;;;;;;8.13;4.28;;;-2.90;99.90;;;;;;5078660;28;20417;-69
2022/03/09 03:16:42;;;;;;;11.73;4.60;;;-2.90;99.90;;;;;;5078105;28;20052;-69
2022/03/09 03:19:11;;;;;;;10.43;3.97;;;-2.90;99.90;;;;;;5078110;28;20084;-69
2022/03/09 03:21:38;;;;;;;8.98;3.88;;;-2.90;99.90;;;;;;5077988;28;20024;-69
2022/03/09 03:24:06;;;;;;;7.93;3.95;;;-2.90;99.90;;;;;;5060228;28;20036;-69
2022/03/09 03:26:33;;;;;;;7.13;4.03;;;-3.00;99.90;;;;;;5078411;28;20344;-69
2022/03/09 03:29:01;;;;;;;12.15;4.22;;;-3.00;99.90;;;;;;5077969;28;20020;-69
2022/03/09 03:31:31;;;;;;;20.35;4.80;;;-3.00;99.90;;;;;;5077541;28;20055;-69
2022/03/09 03:33:59;;;;;;;12.32;4.80;;;-3.10;99.90;;;;;;5059148;28;20043;-69
2022/03/09 03:36:26;;;;;;;12.57;4.07;;;-3.10;99.90;;;;;;5077332;28;20401;-69
2022/03/09 03:38:54;;;;;;;9.93;4.43;;;-3.10;99.90;;;;;;5077677;28;20042;-69
2022/03/09 03:41:22;;;;;;;14.48;4.50;;;-3.20;99.90;;;;;;5076442;28;20021;-69
2022/03/09 03:43:49;;;;;;;10.00;4.55;;;-3.20;99.90;;;;;;5058952;28;20452;-69
2022/03/09 03:46:17;;;;;;;7.47;3.92;;;-3.20;99.90;;;;;;5058872;28;20024;-69
2022/03/09 03:48:44;;;;;;;8.48;4.40;;;-3.20;99.90;;;;;;5077160;28;20413;-69
2022/03/09 03:51:12;;;;;;;12.77;4.30;;;-3.20;99.90;;;;;;5058856;28;20036;-69
2022/03/09 03:53:39;;;;;;;10.02;4.72;;;-3.20;99.90;;;;;;5077380;28;20016;-69
2022/03/09 03:56:07;;;;;;;12.02;4.95;;;-3.30;99.90;;;;;;5077754;28;20027;-69
2022/03/09 03:58:34;;;;;;;14.27;4.95;;;-3.30;99.90;;;;;;5077633;28;20024;-69
2022/03/09 04:01:01;;;;;;;9.00;4.32;;;-3.30;99.90;;;;;;5077867;28;20027;-69
2022/03/09 04:03:29;;;;;;;7.85;4.70;;;-3.30;99.90;;;;;;5059644;28;20025;-69
2022/03/09 04:05:56;;;;;;;7.13;3.67;;;-3.30;99.90;;;;;;5077438;28;20020;-69
2022/03/09 04:08:23;;;;;;;15.77;4.43;;;-3.30;99.90;;;;;;5078078;28;20020;-69
2022/03/09 04:10:51;;;;;;;10.90;4.55;;;-3.40;99.90;;;;;;5059534;28;20036;-69
2022/03/09 04:13:18;;;;;;;10.48;5.22;;;-3.40;99.90;;;;;;5077247;28;20025;-69
2022/03/09 04:15:45;;;;;;;8.00;4.57;;;-3.50;99.90;;;;;;5076709;28;20503;-69
2022/03/09 04:18:12;;;;;;;7.53;3.88;;;-3.50;99.90;;;;;;5076616;28;20412;-69
2022/03/09 04:20:40;;;;;;;10.15;4.40;;;-3.50;99.90;;;;;;5076621;28;20032;-69
2022/03/09 04:23:10;;;;;;;11.98;5.07;;;-3.50;99.90;;;;;;5076348;28;20028;-69
2022/03/09 04:25:40;;;;;;;12.88;4.75;;;-3.60;99.90;;;;;;5058445;28;20024;-69
2022/03/09 04:28:08;;;;;;;9.35;4.10;;;-3.60;99.90;;;;;;5058617;28;20115;-69
2022/03/09 04:30:35;;;;;;;7.45;4.05;;;-3.70;99.90;;;;;;5076664;28;20312;-69
2022/03/09 04:33:02;;;;;;;8.15;3.75;;;-3.70;99.90;;;;;;5076818;28;20405;-69
2022/03/09 04:35:30;;;;;;;10.32;4.22;;;-3.60;99.90;;;;;;5076210;28;20071;-69
2022/03/09 04:37:58;;;;;;;9.15;4.25;;;-3.60;99.90;;;;;;5077588;28;20028;-69
2022/03/09 04:40:25;;;;;;;12.25;4.97;;;-3.70;99.90;;;;;;5077577;28;20048;-69
2022/03/09 04:42:52;;;;;;;10.88;4.90;;;-3.70;99.90;;;;;;5077072;28;20099;-69
2022/03/09 04:45:20;;;;;;;10.18;3.88;;;-3.70;99.90;;;;;;5077472;28;20351;-69
2022/03/09 04:47:47;;;;;;;9.65;4.68;;;-3.70;99.90;;;;;;5077680;28;20027;-69
2022/03/09 04:50:14;;;;;;;12.57;4.95;;;-3.70;99.90;;;;;;5077452;28;20032;-69
2022/03/09 04:52:41;;;;;;;10.68;4.43;;;-3.70;99.90;;;;;;5079035;28;20146;-69
2022/03/09 04:55:09;;;;;;;9.05;4.32;;;-3.80;99.90;;;;;;5063022;28;20115;-69
2022/03/09 04:57:38;;;;;;;10.60;4.85;;;-3.80;99.90;;;;;;5062481;28;20024;-69
2022/03/09 05:00:07;;;;;;;8.93;4.18;;;-3.80;99.90;;;;;;5079717;28;20024;-69
2022/03/09 05:02:34;;;;;;;11.20;4.53;;;-3.80;99.90;;;;;;5080295;28;20033;-69
2022/03/09 05:05:02;;;;;;;11.48;4.60;;;-3.80;99.90;;;;;;5079673;28;20020;-69
2022/03/09 05:07:30;;;;;;;10.73;4.05;;;-3.80;99.90;;;;;;5080391;28;20074;-69
2022/03/09 05:09:57;;;;;;;12.02;5.13;;;-3.80;99.90;;;;;;5061738;28;20413;-69
2022/03/09 05:12:25;;;;;;;15.60;5.10;;;-3.80;99.90;;;;;;5079557;28;20024;-69
2022/03/09 05:14:53;;;;;;;9.38;4.95;;;-3.80;99.90;;;;;;5061738;28;20031;-69
2022/03/09 05:17:20;;;;;;;11.18;4.30;;;-3.90;99.90;;;;;;5079533;28;20064;-69
2022/03/09 05:19:48;;;;;;;9.60;4.53;;;-3.90;99.90;;;;;;5079745;28;20087;-69
2022/03/09 05:22:15;;;;;;;8.90;3.90;;;-3.90;99.90;;;;;;5080562;28;20317;-69
2022/03/09 05:24:43;;;;;;;9.45;4.18;;;-3.90;99.90;;;;;;5062506;28;20028;-69
2022/03/09 05:27:10;;;;;;;8.25;4.57;;;-3.90;99.90;;;;;;5080192;28;20021;-69
2022/03/09 05:29:38;;;;;;;8.65;4.40;;;-3.90;99.90;;;;;;5080079;28;20072;-69
2022/03/09 05:32:06;;;;;;;8.20;4.35;;;-4.00;99.90;;;;;;5080298;28;20424;-69
2022/03/09 05:34:33;;;;;;;6.93;3.80;;;-4.10;99.90;;;;;;5080343;28;20067;-69
2022/03/09 05:37:01;;;;;;;10.13;4.30;;;-4.10;99.90;;;;;;5080596;28;20404;-69
2022/03/09 05:39:29;;;;;;;12.52;5.82;;;-4.10;99.90;;;;;;5080321;28;20027;-69
2022/03/09 05:41:56;;;;;;;12.90;5.88;;;-4.10;99.90;;;;;;5079077;28;20036;-69
2022/03/09 05:44:23;;;;;;;15.15;7.88;;;-4.10;99.90;;;;;;5061544;28;20089;-69
2022/03/09 05:46:51;;;;;;;27.13;6.40;;;-4.10;99.90;;;;;;5078861;28;20108;-69
2022/03/09 05:49:20;;;;;;;12.60;5.57;;;-4.10;99.90;;;;;;5061824;28;20294;-69
2022/03/09 05:51:48;;;;;;;15.65;5.57;;;-4.00;99.90;;;;;;5079003;28;20023;-69
2022/03/09 05:54:15;;;;;;;14.60;5.45;;;-4.10;99.90;;;;;;5078686;28;20048;-69
2022/03/09 05:56:42;;;;;;;12.88;5.05;;;-4.10;99.90;;;;;;5060927;28;20021;-70
2022/03/09 05:59:10;;;;;;;11.25;5.50;;;-4.10;99.90;;;;;;5078927;28;20488;-70
2022/03/09 06:01:38;;;;;;;11.25;5.35;;;-4.10;99.90;;;;;;5060904;28;20024;-70
2022/03/09 06:04:05;;;;;;;13.82;5.90;;;-4.10;99.90;;;;;;5079707;28;20028;-70
2022/03/09 06:06:32;;;;;;;14.55;6.20;;;-4.10;99.90;;;;;;5079431;28;20021;-69
2022/03/09 06:09:00;;;;;;;19.98;5.97;;;-4.10;99.90;;;;;;5079330;28;20082;-69
2022/03/09 06:11:27;;;;;;;11.00;5.40;;;-4.10;99.90;;;;;;5080062;28;20040;-69
2022/03/09 06:13:54;;;;;;;17.33;6.70;;;-4.10;99.90;;;;;;5079847;28;20105;-70
2022/03/09 06:16:22;;;;;;;15.10;6.15;;;-4.00;99.90;;;;;;5079474;28;20024;-69
2022/03/09 06:18:49;;;;;;;11.23;4.88;;;-4.00;99.90;;;;;;5096692;28;20055;-69
2022/03/09 06:21:20;;;;;;;12.20;4.63;;;-4.00;99.90;;;;;;5099942;28;20024;-69
2022/03/09 06:23:48;;;;;;;10.70;4.63;;;-4.00;99.90;;;;;;5098646;28;20025;-70
2022/03/09 06:26:15;;;;;;;11.50;5.15;;;-4.00;99.90;;;;;;5097260;28;20420;-69
2022/03/09 06:28:43;;;;;;;11.95;4.97;;;-4.00;99.90;;;;;;5098353;28;20024;-69
2022/03/09 06:31:10;;;;;;;14.57;6.15;;;-4.00;99.90;;;;;;5098507;28;20024;-69
2022/03/09 06:33:37;;;;;;;11.25;5.00;;;-3.90;99.90;;;;;;5098448;28;20016;-70
2022/03/09 06:36:06;;;;;;;13.98;4.60;;;-3.90;99.90;;;;;;5098778;28;20030;-69
2022/03/09 06:38:35;;;;;;;9.32;4.68;;;-3.90;99.90;;;;;;5098540;28;20410;-70
2022/03/09 06:41:03;;;;;;;18.60;5.53;;;-3.80;99.90;;;;;;5097238;28;20024;-69
2022/03/09 06:43:31;;;;;;;11.68;5.93;;;-3.80;99.90;;;;;;5098691;28;20149;-69
2022/03/09 06:45:58;;;;;;;16.15;5.95;;;-3.80;99.90;;;;;;5098466;28;20432;-78
2022/03/09 06:48:25;;;;;;;9.68;5.43;;;-3.70;99.90;;;;;;5097825;28;20034;-77
2022/03/09 06:50:53;;;;;;;28.30;10.57;;;-3.70;99.90;;;;;;5098814;28;20024;-72
2022/03/09 06:53:21;;;;;;;26.65;11.80;;;-3.60;99.90;;;;;;5097415;28;20024;-73
2022/03/09 06:55:48;;;;;;;61.47;23.38;;;-3.60;99.90;;;;;;5099055;28;20016;-74
2022/03/09 06:58:15;;;;;;;22.02;9.45;;;-3.50;99.90;;;;;;5099058;28;20061;-73
2022/03/09 07:00:42;;;;;;;14.35;5.82;;;-3.40;99.90;;;;;;5098761;28;20420;-77
2022/03/09 07:03:10;;;;;;;35.28;14.60;;;-3.30;99.90;;;;;;5098758;28;20398;-73
2022/03/09 07:05:37;;;;;;;53.13;20.35;;;-3.30;99.90;;;;;;5098473;28;20020;-77
2022/03/09 07:08:05;;;;;;;34.63;12.65;;;-3.20;99.90;;;;;;5096739;28;20354;-77
2022/03/09 07:10:32;;;;;;;17.33;6.78;;;-3.10;99.90;;;;;;5096588;28;20119;-77
2022/03/09 07:13:00;;;;;;;12.88;5.60;;;-3.00;99.90;;;;;;5091620;28;20020;-78
2022/03/09 07:15:27;;;;;;;15.27;7.30;;;-2.90;99.90;;;;;;5095974;28;20020;-76
2022/03/09 07:17:54;;;;;;;12.38;6.07;;;-2.80;99.90;;;;;;5085643;28;20056;-76
2022/03/09 07:20:23;;;;;;;13.82;7.18;;;-2.70;99.90;;;;;;5077196;28;20053;-76
2022/03/09 07:22:50;;;;;;;13.38;6.78;;;-2.70;99.90;;;;;;5077363;28;20020;-72
2022/03/09 07:25:18;;;;;;;25.20;11.40;;;-2.60;99.90;;;;;;5059269;28;20024;-74
2022/03/09 07:27:46;;;;;;;20.98;7.50;;;-2.50;99.90;;;;;;5059243;28;20481;-71
2022/03/09 07:30:14;;;;;;;12.55;6.93;;;-2.40;99.90;;;;;;5077627;28;20028;-71
2022/03/09 07:32:41;;;;;;;15.13;7.15;;;-2.30;99.90;;;;;;5078096;28;20317;-70
2022/03/09 07:35:10;;;;;;;13.77;6.95;;;-2.20;99.90;;;;;;5059980;28;20029;-72
2022/03/09 07:37:38;;;;;;;15.38;7.68;;;-2.10;99.90;;;;;;5059978;28;20020;-74
2022/03/09 07:40:07;;;;;;;16.13;8.35;;;-2.00;99.90;;;;;;5059964;28;20324;-73
2022/03/09 07:42:35;;;;;;;22.13;7.72;;;-1.90;99.90;;;;;;5078236;28;20029;-73
2022/03/09 07:45:05;;;;;;;14.00;6.70;;;-1.80;99.90;;;;;;5059737;28;20119;-70
2022/03/09 07:47:34;;;;;;;13.18;6.18;;;-1.80;99.90;;;;;;5077381;28;20024;-73
2022/03/09 07:50:03;;;;;;;20.45;7.35;;;-1.60;99.90;;;;;;5077243;28;20119;-73
2022/03/09 07:52:31;;;;;;;16.17;7.25;;;-1.60;99.90;;;;;;5077133;28;20347;-74
2022/03/09 07:54:58;;;;;;;18.67;7.95;;;-1.40;99.90;;;;;;5076618;28;20020;-73
2022/03/09 07:57:25;;;;;;;19.58;9.93;;;-1.30;99.90;;;;;;5058748;28;20025;-69
2022/03/09 07:59:53;;;;;;;16.30;7.00;;;-1.30;99.90;;;;;;5077100;28;20032;-69
2022/03/09 08:02:21;;;;;;;16.63;5.72;;;-1.10;99.90;;;;;;5058670;28;20115;-71
2022/03/09 08:04:48;;;;;;;13.85;5.40;;;-1.00;99.90;;;;;;5076589;28;20020;-72
2022/03/09 08:07:15;;;;;;;13.52;6.22;;;-0.80;99.90;;;;;;5076394;28;20056;-74
2022/03/09 08:09:43;;;;;;;10.77;5.28;;;-0.70;99.90;;;;;;5077077;28;20035;-75
2022/03/09 08:12:11;;;;;;;14.27;5.72;;;-0.60;99.90;;;;;;5077132;28;20024;-75
2022/03/09 08:14:38;;;;;;;13.00;4.97;;;-0.40;99.90;;;;;;5077299;28;20334;-75
2022/03/09 08:17:06;;;;;;;10.77;5.00;;;-0.30;99.90;;;;;;5077370;28;20470;-70
2022/03/09 08:19:34;;;;;;;12.13;6.05;;;-0.20;99.90;;;;;;5077466;28;20052;-70
2022/03/09 08:22:02;;;;;;;22.30;7.00;;;-0.10;99.90;;;;;;5060091;28;20048;-71
2022/03/09 08:24:29;;;;;;;12.05;5.57;;;0.00;99.90;;;;;;5077498;28;20029;-70
2022/03/09 08:26:57;;;;;;;13.40;5.40;;;0.10;99.90;;;;;;5077746;28;20029;-76
2022/03/09 08:29:24;;;;;;;11.63;5.75;;;0.20;99.90;;;;;;5063439;28;20428;-72
2022/03/09 08:31:52;;;;;;;10.07;4.75;;;0.30;99.90;;;;;;5080523;28;20029;-72
2022/03/09 08:34:20;;;;;;;12.10;5.70;;;0.40;99.90;;;;;;5080375;28;20470;-72
2022/03/09 08:36:47;;;;;;;10.25;5.15;;;0.40;99.90;;;;;;5062545;28;20028;-71
2022/03/09 08:39:15;;;;;;;12.18;5.55;;;0.50;99.90;;;;;;5080724;28;20029;-76
2022/03/09 08:41:44;;;;;;;8.85;4.57;;;0.60;99.90;;;;;;5080186;28;20024;-76
2022/03/09 08:44:12;;;;;;;12.25;5.65;;;0.70;99.90;;;;;;5080330;28;20027;-76
2022/03/09 08:46:39;;;;;;;13.35;5.47;;;0.80;99.90;;;;;;5080271;28;20312;-75
2022/03/09 08:49:06;;;;;;;14.85;5.32;;;0.80;99.90;;;;;;5080289;28;20028;-75
2022/03/09 08:51:33;;;;;;;13.52;4.70;;;0.90;99.90;;;;;;5062481;28;20317;-75
2022/03/09 08:54:01;;;;;;;14.18;5.47;;;1.00;99.90;;;;;;5081040;28;20017;-74
2022/03/09 08:56:29;;;;;;;9.75;4.63;;;1.10;99.90;;;;;;5081329;28;20021;-74
2022/03/09 08:58:56;;;;;;;12.90;4.50;;;1.30;99.90;;;;;;5062983;28;20067;-74
2022/03/09 09:01:24;;;;;;;19.38;5.72;;;1.30;99.90;;;;;;5080613;28;20306;-73
2022/03/09 09:03:52;;;;;;;15.50;5.68;;;1.50;99.90;;;;;;5080835;28;20044;-73
2022/03/09 09:06:19;;;;;;;12.25;5.97;;;1.60;99.90;;;;;;5080608;28;20035;-73
2022/03/09 09:08:47;;;;;;;12.63;5.68;;;1.70;99.90;;;;;;5062769;28;20036;-73
2022/03/09 09:11:15;;;;;;;19.05;5.97;;;1.80;99.90;;;;;;5062648;28;20028;-70
2022/03/09 09:13:43;;;;;;;11.63;5.22;;;1.90;99.90;;;;;;5079769;28;20051;-70
2022/03/09 09:16:10;;;;;;;13.45;5.40;;;2.00;99.90;;;;;;5079474;28;20020;-69
2022/03/09 09:18:38;;;;;;;18.55;5.25;;;2.20;99.90;;;;;;5079291;28;20041;-70
2022/03/09 09:21:06;;;;;;;11.45;5.22;;;2.30;99.90;;;;;;5079419;28;20020;-70
2022/03/09 09:23:33;;;;;;;8.85;4.30;;;2.40;99.90;;;;;;5079213;28;20421;-71
2022/03/09 09:26:01;;;;;;;9.98;4.78;;;2.50;99.90;;;;;;5079681;28;20059;-70
2022/03/09 09:28:28;;;;;;;8.90;4.82;;;2.70;99.90;;;;;;5061377;28;20115;-70
2022/03/09 09:30:56;;;;;;;8.75;4.38;;;2.90;99.90;;;;;;5079348;28;20025;-70
2022/03/09 09:33:24;;;;;;;9.25;4.38;;;3.10;99.90;;;;;;5079670;28;20101;-71
2022/03/09 09:35:51;;;;;;;7.97;3.67;;;3.40;99.90;;;;;;5079917;28;20048;-70
2022/03/09 09:38:19;;;;;;;9.45;4.47;;;3.60;99.90;;;;;;5079432;28;20024;-72
2022/03/09 09:40:47;;;;;;;12.20;5.05;;;3.80;99.90;;;;;;5079209;28;20324;-70
2022/03/09 09:43:16;;;;;;;9.00;4.70;;;4.00;99.90;;;;;;5079901;28;20324;-70
2022/03/09 09:45:44;;;;;;;8.82;3.72;;;4.20;99.90;;;;;;5080241;28;20413;-72
2022/03/09 09:48:12;;;;;;;11.55;3.70;;;4.30;99.90;;;;;;5079768;28;20025;-75
2022/03/09 09:50:42;;;;;;;6.78;3.67;;;4.50;99.90;;;;;;5079511;28;20091;-70
2022/03/09 09:53:11;;;;;;;6.30;3.35;;;4.60;99.90;;;;;;5079799;28;20017;-71
2022/03/09 09:55:39;;;;;;;7.63;3.70;;;4.70;99.90;;;;;;5079362;28;20362;-71
2022/03/09 09:58:07;;;;;;;10.52;4.85;;;4.70;99.90;;;;;;5078744;28;20504;-71
2022/03/09 10:00:35;;;;;;;9.30;4.05;;;4.70;99.90;;;;;;5078748;28;20032;-73
2022/03/09 10:03:06;;;;;;;8.88;4.22;;;4.80;99.90;;;;;;5060747;28;20029;-71
2022/03/09 10:05:33;;;;;;;10.32;4.43;;;4.90;99.90;;;;;;5061107;28;20324;-71
2022/03/09 10:08:08;;;;;;;6.13;3.80;;;5.10;99.90;;;;;;5079103;28;20094;-71
2022/03/09 10:10:56;;;;;;;10.35;4.53;;;5.30;98.70;;;;;;5079168;28;20021;-71
2022/03/09 10:13:25;;;;;;;10.18;3.58;;;5.60;97.50;;;;;;5078728;28;20017;-71
2022/03/09 10:16:21;;;;;;;10.07;4.10;;;5.70;97.40;;;;;;5078792;28;20024;-71
2022/03/09 10:18:51;;;;;;;8.23;4.03;;;5.90;96.70;;;;;;5079250;28;20049;-71
2022/03/09 10:21:23;;;;;;;9.73;4.53;;;5.90;96.50;;;;;;5061389;28;20037;-71
2022/03/09 10:24:09;;;;;;;8.65;3.70;;;5.90;95.40;;;;;;5079162;28;20094;-71
2022/03/09 10:26:38;;;;;;;9.88;4.53;;;6.00;93.80;;;;;;5061181;28;20024;-71
2022/03/09 10:29:18;;;;;;;10.60;4.78;;;6.00;93.70;;;;;;5079618;28;20084;-72
2022/03/09 10:31:51;;;;;;;8.90;4.78;;;6.20;92.40;;;;;;5078997;28;20056;-72
2022/03/09 10:34:22;;;;;;;14.40;5.93;;;6.30;93.10;;;;;;5061216;28;20317;-72
2022/03/09 10:37:04;;;;;;;10.52;4.53;;;6.40;93.10;;;;;;5078750;28;20021;-72
2022/03/09 10:39:40;;;;;;;10.38;5.97;;;6.50;91.80;;;;;;5078032;28;20024;-72
2022/03/09 10:42:25;;;;;;;9.25;5.22;;;6.60;90.30;;;;;;5078315;28;20024;-72
2022/03/09 10:44:54;;;;;;;9.43;4.15;;;6.80;87.10;;;;;;5060008;28;20086;-72
2022/03/09 10:47:33;;;;;;;9.40;5.28;;;7.00;85.20;;;;;;5077659;28;20021;-72
2022/03/09 10:50:22;;;;;;;7.88;4.03;;;7.20;82.80;;;;;;5076900;28;20024;-72
2022/03/09 10:52:52;;;;;;;10.98;4.50;;;7.30;82.30;;;;;;5077665;28;20024;-72
2022/03/09 10:55:33;;;;;;;8.10;4.13;;;7.30;81.60;;;;;;5077610;28;20095;-72
2022/03/09 10:58:22;;;;;;;7.15;3.40;;;7.30;80.60;;;;;;5077831;28;20021;-72
2022/03/09 11:00:53;;;;;;;7.18;3.65;;;7.40;77.80;;;;;;5060313;28;20064;-71
2022/03/09 11:03:26;;;;;;;9.45;3.45;;;7.60;77.80;;;;;;5078342;28;20025;-71
2022/03/09 11:05:59;;;;;;;6.97;3.65;;;7.60;76.30;;;;;;5078847;28;20363;-71
2022/03/09 11:08:32;;;;;;;9.27;3.75;;;7.70;76.10;;;;;;5078737;28;20026;-70
2022/03/09 11:11:00;;;;;;;11.00;3.70;;;7.60;75.90;;;;;;5060578;28;20024;-72
2022/03/09 11:13:35;;;;;;;6.80;3.33;;;7.60;74.70;;;;;;5078101;28;20047;-72
2022/03/09 11:16:03;;;;;;;10.10;4.50;;;7.50;74.70;;;;;;5078059;28;20468;-71
2022/03/09 11:18:32;;;;;;;9.15;4.57;;;7.60;72.60;;;;;;5077986;28;20040;-71
2022/03/09 11:21:04;;;;;;;11.55;4.03;;;7.80;70.90;;;;;;5059455;28;20420;-72
2022/03/09 11:23:33;;;;;;;7.93;3.97;;;7.90;71.50;;;;;;5077550;28;20048;-71
2022/03/09 11:26:17;;;;;;;8.65;4.63;;;7.90;71.80;;;;;;5077115;28;20031;-71
2022/03/09 11:28:47;;;;;;;7.30;3.33;;;8.00;70.70;;;;;;5076839;28;20038;-72
2022/03/09 11:31:17;;;;;;;5.65;3.25;;;8.10;68.80;;;;;;5059010;28;20033;-72
2022/03/09 11:33:53;;;;;;;5.60;2.97;;;8.20;66.50;;;;;;5076971;28;20032;-71
2022/03/09 11:36:27;;;;;;;;;;;8.30;66.00;;;;;;5077203;28;20016;-71
2022/03/09 11:38:56;;;;;;;7.50;3.15;;;8.40;65.20;;;;;;5077388;28;19904;-72
2022/03/09 11:41:25;;;;;;;5.03;3.03;;;8.40;62.70;;;;;;5077258;28;20309;-73
2022/03/09 11:44:14;;;;;;;5.30;2.85;;;8.50;61.20;;;;;;5078002;28;20078;-72
2022/03/09 11:47:00;;;;;;;5.50;2.75;;;8.70;60.20;;;;;;5077407;28;20027;-72
2022/03/09 11:49:53;;;;;;;5.47;2.83;;;8.80;59.70;;;;;;5078062;28;20086;-72
2022/03/09 11:52:23;;;;;;;6.45;3.38;;;8.80;58.90;;;;;;5059721;28;20328;-72
2022/03/09 11:54:55;;;;;;;5.90;3.55;;;8.80;58.90;;;;;;5059911;28;20025;-72
2022/03/09 11:57:46;;;;;;;7.57;3.70;;;9.00;58.60;;;;;;5078012;28;20024;-71
2022/03/09 12:00:21;;;;;;;7.43;3.50;;;9.10;58.10;;;;;;5077324;28;20024;-71
2022/03/09 12:02:57;;;;;;;6.70;3.45;;;9.10;58.00;;;;;;5077414;28;20025;-71
2022/03/09 12:05:35;;;;;;;6.43;3.10;;;9.10;58.10;;;;;;5077139;28;20039;-72
2022/03/09 12:08:09;;;;;;;5.82;3.00;;;9.20;56.10;;;;;;5058641;28;20029;-71
2022/03/09 12:10:53;;;;;;;6.18;3.40;;;9.30;55.20;;;;;;5076607;28;20421;-71
2022/03/09 12:13:22;;;;;;;7.22;2.63;;;9.30;56.10;;;;;;5076419;28;20052;-72
2022/03/09 12:16:15;;;;;;;5.32;2.85;;;9.30;55.20;;;;;;5076169;28;20103;-71
2022/03/09 12:18:52;;;;;;;7.15;3.28;;;9.30;54.70;;;;;;5076337;28;20391;-72
2022/03/09 12:21:50;;;;;;;6.80;3.63;;;9.30;53.30;;;;;;5076865;28;20021;-72
2022/03/09 12:24:26;;;;;;;5.72;2.97;;;9.40;54.10;;;;;;5076966;28;20391;-71
2022/03/09 12:26:54;;;;;;;6.97;3.20;;;9.50;53.00;;;;;;5077509;28;20021;-71
2022/03/09 12:29:24;;;;;;;4.95;3.00;;;9.60;53.20;;;;;;5077221;28;20255;-71
2022/03/09 12:32:07;;;;;;;5.93;3.22;;;9.70;53.70;;;;;;5077221;28;20049;-72
2022/03/09 12:34:37;;;;;;;6.75;2.85;;;9.70;53.40;;;;;;5059346;28;20024;-72
2022/03/09 12:37:07;;;;;;;5.60;3.20;;;9.80;52.60;;;;;;5077575;28;20428;-72
2022/03/09 12:39:36;;;;;;;5.68;2.83;;;9.80;52.90;;;;;;5077156;28;20053;-71
2022/03/09 12:42:05;;;;;;;6.95;2.80;;;9.80;52.90;;;;;;5077579;28;20025;-71
2022/03/09 12:44:34;;;;;;;5.57;2.80;;;9.90;51.40;;;;;;5076655;28;20071;-71
2022/03/09 12:47:03;;;;;;;7.65;2.97;;;10.00;50.80;;;;;;5076114;28;20047;-72
2022/03/09 12:49:43;;;;;;;6.07;2.33;;;10.10;50.80;;;;;;5076032;28;20028;-72
2022/03/09 12:52:19;;;;;;;6.22;2.95;;;10.10;51.00;;;;;;5076589;28;20024;-71
2022/03/09 12:54:48;;;;;;;;;;;10.20;51.20;;;;;;5076463;28;20012;-72
2022/03/09 12:57:21;;;;;;;6.18;2.80;;;10.20;51.60;;;;;;5075927;28;19957;-72
2022/03/09 13:00:13;;;;;;;7.28;3.00;;;10.30;50.80;;;;;;5076073;28;20025;-71